Time;durP1;ratioP1;P1;durP2;ratioP2;P2;SDS_P1;SDS_P2;PMS_P1;PMS_P2;Temp;Humidity;BMP_temperature;BMP_pressure;BME280_temperature;BME280_humidity;BME280_pressure;Samples;Min_cycle;Max_cycle;Signal;HPM_P1;HPM_P2
2023/07/15 00:02:17;;;;;;;7.18;3.50;;;21.90;99.90;;;;;;5083115;28;20508;-70
2023/07/15 00:04:42;;;;;;;4.72;3.50;;;22.00;99.90;;;;;;5082706;28;20035;-70
2023/07/15 00:07:08;;;;;;;7.07;3.60;;;22.00;99.90;;;;;;5080004;28;20122;-70
2023/07/15 00:09:35;;;;;;;4.43;3.05;;;22.00;99.90;;;;;;5084492;28;20036;-70
2023/07/15 00:12:01;;;;;;;5.15;3.15;;;22.00;99.90;;;;;;5085893;28;20017;-69
2023/07/15 00:14:28;;;;;;;4.13;3.55;;;22.00;99.90;;;;;;5084060;28;20070;-70
2023/07/15 00:16:55;;;;;;;4.82;2.83;;;21.90;99.90;;;;;;5086104;28;20035;-70
2023/07/15 00:19:22;;;;;;;6.07;3.13;;;21.90;99.90;;;;;;5090092;28;20067;-70
2023/07/15 00:21:48;;;;;;;4.10;2.90;;;21.90;99.90;;;;;;5089810;28;20027;-69
2023/07/15 00:24:14;;;;;;;7.90;3.30;;;21.90;99.90;;;;;;5080474;28;20028;-70
2023/07/15 00:26:40;;;;;;;7.25;2.95;;;21.90;99.90;;;;;;5085743;28;20023;-70
2023/07/15 00:29:07;;;;;;;7.82;2.92;;;21.90;99.90;;;;;;5080288;28;20067;-70
2023/07/15 00:31:34;;;;;;;5.50;3.40;;;21.90;99.90;;;;;;5079665;28;20106;-70
2023/07/15 00:34:00;;;;;;;3.85;2.80;;;21.80;99.90;;;;;;5076829;28;20024;-69
2023/07/15 00:36:26;;;;;;;4.97;3.38;;;21.80;99.90;;;;;;5083226;28;20074;-69
2023/07/15 00:38:53;;;;;;;6.07;3.25;;;21.80;99.90;;;;;;5087784;28;20027;-69
2023/07/15 00:41:29;;;;;;;3.95;2.40;;;21.80;99.90;;;;;;5079148;28;20024;-69
2023/07/15 00:44:03;;;;;;;7.28;3.42;;;21.80;99.90;;;;;;5084538;28;20016;-70
2023/07/15 00:46:48;;;;;;;4.65;2.78;;;21.80;99.90;;;;;;5080492;28;20472;-70
2023/07/15 00:49:16;;;;;;;7.53;3.45;;;21.70;99.90;;;;;;5081848;28;20028;-69
2023/07/15 00:51:47;;;;;;;7.32;3.03;;;21.70;99.90;;;;;;5086056;28;20021;-70
2023/07/15 00:54:14;;;;;;;4.63;2.65;;;21.70;99.90;;;;;;5082896;28;20028;-70
2023/07/15 00:56:41;;;;;;;4.72;3.15;;;21.70;99.90;;;;;;5083758;28;20077;-69
2023/07/15 00:59:11;;;;;;;13.23;2.75;;;21.80;99.90;;;;;;5077818;28;20044;-69
2023/07/15 01:01:37;;;;;;;5.47;3.20;;;21.70;99.90;;;;;;5077162;28;20471;-69
2023/07/15 01:04:02;;;;;;;5.28;2.88;;;21.60;99.90;;;;;;5079449;28;20023;-69
2023/07/15 01:06:28;;;;;;;7.45;2.47;;;21.70;99.90;;;;;;5086631;28;20028;-69
2023/07/15 01:08:54;;;;;;;6.47;2.50;;;21.70;99.90;;;;;;5086601;28;20480;-69
2023/07/15 01:11:20;;;;;;;7.65;2.80;;;21.60;99.90;;;;;;5079353;28;20524;-69
2023/07/15 01:13:47;;;;;;;3.72;2.25;;;21.70;99.90;;;;;;5081782;28;20027;-69
2023/07/15 01:16:13;;;;;;;7.78;2.72;;;21.70;99.90;;;;;;5083427;28;20012;-69
2023/07/15 01:18:38;;;;;;;4.25;2.30;;;21.70;99.90;;;;;;5082386;28;20028;-69
2023/07/15 01:21:05;;;;;;;5.97;3.15;;;21.70;99.90;;;;;;5085524;28;20016;-69
2023/07/15 01:23:31;;;;;;;4.03;3.33;;;21.70;99.90;;;;;;5077758;28;20050;-70
2023/07/15 01:25:57;;;;;;;6.28;3.20;;;21.70;99.90;;;;;;5081661;28;20453;-69
2023/07/15 01:28:23;;;;;;;3.47;2.88;;;21.70;99.90;;;;;;5080468;28;20035;-70
2023/07/15 01:30:49;;;;;;;6.22;2.85;;;21.70;99.90;;;;;;5079011;28;20400;-69
2023/07/15 01:33:18;;;;;;;5.50;2.75;;;21.70;99.90;;;;;;5081172;28;20020;-69
2023/07/15 01:35:48;;;;;;;4.05;2.80;;;21.70;99.90;;;;;;5085817;28;20028;-69
2023/07/15 01:38:15;;;;;;;5.13;2.58;;;21.60;99.90;;;;;;5082282;28;20032;-70
2023/07/15 01:40:41;;;;;;;4.75;2.15;;;21.50;99.90;;;;;;5083243;28;20042;-69
2023/07/15 01:43:06;;;;;;;3.88;2.20;;;21.50;99.90;;;;;;5078858;28;20050;-69
2023/07/15 01:45:32;;;;;;;6.22;2.50;;;21.50;99.90;;;;;;5079834;28;20024;-69
2023/07/15 01:47:58;;;;;;;4.60;2.38;;;21.60;99.90;;;;;;5077711;28;20024;-69
2023/07/15 01:50:23;;;;;;;6.78;2.90;;;21.60;99.90;;;;;;5082244;28;20055;-69
2023/07/15 01:52:49;;;;;;;3.22;2.92;;;21.50;99.90;;;;;;5083999;28;20024;-69
2023/07/15 01:55:15;;;;;;;3.28;2.55;;;21.50;99.90;;;;;;5082943;28;20028;-70
2023/07/15 01:57:41;;;;;;;6.15;2.50;;;21.50;99.90;;;;;;5078649;28;20039;-69
2023/07/15 02:00:08;;;;;;;5.93;2.95;;;21.50;99.90;;;;;;5081628;28;20027;-69
2023/07/15 02:02:34;;;;;;;5.07;2.95;;;21.60;99.90;;;;;;5082009;28;20024;-70
2023/07/15 02:05:00;;;;;;;7.05;2.83;;;21.50;99.90;;;;;;5079528;28;20359;-69
2023/07/15 02:07:25;;;;;;;4.97;2.83;;;21.50;99.90;;;;;;5084489;28;20024;-69
2023/07/15 02:09:51;;;;;;;5.80;2.42;;;21.60;99.90;;;;;;5085755;28;20081;-70
2023/07/15 02:12:16;;;;;;;3.33;2.47;;;21.60;99.90;;;;;;5081156;28;20204;-69
2023/07/15 02:14:43;;;;;;;5.20;2.97;;;21.60;99.90;;;;;;5078194;28;20020;-69
2023/07/15 02:17:09;;;;;;;4.65;2.42;;;21.60;99.90;;;;;;5088167;28;20111;-69
2023/07/15 02:19:34;;;;;;;3.03;2.42;;;21.60;99.90;;;;;;5081880;28;20100;-70
2023/07/15 02:22:00;;;;;;;3.88;2.35;;;21.60;99.90;;;;;;5086767;28;20392;-70
2023/07/15 02:24:26;;;;;;;6.18;2.47;;;21.60;99.90;;;;;;5077324;28;20013;-69
2023/07/15 02:26:52;;;;;;;4.22;3.00;;;21.50;99.90;;;;;;5079214;28;20364;-69
2023/07/15 02:29:17;;;;;;;4.35;2.30;;;21.50;99.90;;;;;;5086818;28;20040;-69
2023/07/15 02:31:44;;;;;;;4.55;2.60;;;21.50;99.90;;;;;;5085365;28;20012;-69
2023/07/15 02:34:10;;;;;;;5.22;2.83;;;21.50;99.90;;;;;;5082156;28;20060;-69
2023/07/15 02:36:36;;;;;;;8.00;2.13;;;21.50;99.90;;;;;;5081228;28;20064;-69
2023/07/15 02:39:04;;;;;;;3.97;2.90;;;21.40;99.90;;;;;;5081852;28;20030;-69
2023/07/15 02:41:31;;;;;;;9.77;2.67;;;21.40;99.90;;;;;;5083389;28;20054;-69
2023/07/15 02:43:56;;;;;;;6.50;2.60;;;21.40;99.90;;;;;;5081155;28;20016;-69
2023/07/15 02:46:22;;;;;;;4.93;2.38;;;21.40;99.90;;;;;;5082152;28;20089;-69
2023/07/15 02:48:48;;;;;;;4.32;2.85;;;21.40;99.90;;;;;;5079169;28;20044;-69
2023/07/15 02:51:13;;;;;;;9.85;2.22;;;21.40;99.90;;;;;;5078873;28;20017;-70
2023/07/15 02:53:42;;;;;;;4.82;2.25;;;21.30;99.90;;;;;;5079377;28;20028;-70
2023/07/15 02:56:07;;;;;;;4.45;2.42;;;21.30;99.90;;;;;;5082723;28;20029;-70
2023/07/15 02:58:33;;;;;;;4.57;2.38;;;21.40;99.90;;;;;;5083393;28;20594;-70
2023/07/15 03:00:59;;;;;;;4.85;2.33;;;21.30;99.90;;;;;;5081114;28;20397;-69
2023/07/15 03:03:25;;;;;;;4.30;2.30;;;21.40;99.90;;;;;;5086853;28;20024;-69
2023/07/15 03:05:51;;;;;;;2.70;2.28;;;21.40;99.90;;;;;;5076415;28;20116;-70
2023/07/15 03:08:17;;;;;;;9.00;3.25;;;21.30;99.90;;;;;;5078900;28;20083;-69
2023/07/15 03:10:44;;;;;;;4.90;2.40;;;21.30;99.90;;;;;;5081902;28;20503;-70
2023/07/15 03:13:10;;;;;;;4.90;2.30;;;21.30;99.90;;;;;;5080890;28;20028;-70
2023/07/15 03:15:36;;;;;;;6.78;2.30;;;21.30;99.90;;;;;;5080708;28;20025;-69
2023/07/15 03:18:04;;;;;;;3.30;2.50;;;21.20;99.90;;;;;;5081050;28;20024;-69
2023/07/15 03:20:30;;;;;;;3.72;2.20;;;21.20;99.90;;;;;;5081049;28;20023;-69
2023/07/15 03:22:56;;;;;;;3.00;1.92;;;21.20;99.90;;;;;;5082206;28;20024;-69
2023/07/15 03:25:22;;;;;;;5.60;2.10;;;21.10;99.90;;;;;;5078741;28;20040;-69
2023/07/15 03:27:49;;;;;;;7.88;2.35;;;21.20;99.90;;;;;;5081306;28;20046;-69
2023/07/15 03:30:15;;;;;;;7.95;2.55;;;21.10;99.90;;;;;;5079666;28;20123;-69
2023/07/15 03:32:42;;;;;;;12.73;2.25;;;21.10;99.90;;;;;;5080689;28;20020;-69
2023/07/15 03:35:08;;;;;;;7.80;2.40;;;21.00;99.90;;;;;;5084390;28;20028;-69
2023/07/15 03:37:35;;;;;;;7.63;2.20;;;21.10;99.90;;;;;;5082470;28;20077;-69
2023/07/15 03:40:08;;;;;;;4.47;2.22;;;21.00;99.90;;;;;;5084711;28;20030;-69
2023/07/15 03:42:40;;;;;;;7.60;2.45;;;21.00;99.90;;;;;;5079420;28;20031;-69
2023/07/15 03:45:07;;;;;;;3.90;2.33;;;20.90;99.90;;;;;;5083923;28;20028;-69
2023/07/15 03:47:36;;;;;;;5.55;2.35;;;20.90;99.90;;;;;;5080139;28;20024;-70
2023/07/15 03:50:06;;;;;;;3.50;2.47;;;20.90;99.90;;;;;;5082566;28;20033;-69
2023/07/15 03:52:32;;;;;;;7.55;2.50;;;20.90;99.90;;;;;;5085068;28;20070;-69
2023/07/15 03:54:58;;;;;;;6.35;2.50;;;20.80;99.90;;;;;;5085663;28;20422;-69
2023/07/15 03:57:24;;;;;;;6.07;2.53;;;20.80;99.90;;;;;;5083187;28;20035;-69
2023/07/15 03:59:50;;;;;;;6.30;2.58;;;20.80;99.90;;;;;;5077139;28;20487;-70
2023/07/15 04:02:16;;;;;;;5.15;2.50;;;20.80;99.90;;;;;;5084983;28;20032;-69
2023/07/15 04:04:43;;;;;;;3.22;2.63;;;20.80;99.90;;;;;;5078463;28;20481;-69
2023/07/15 04:07:09;;;;;;;4.85;2.70;;;20.70;99.90;;;;;;5085606;28;20020;-69
2023/07/15 04:09:37;;;;;;;4.38;2.55;;;20.70;99.90;;;;;;5084904;28;20498;-69
2023/07/15 04:12:03;;;;;;;10.35;2.78;;;20.70;99.90;;;;;;5087074;28;20056;-69
2023/07/15 04:14:29;;;;;;;5.18;2.40;;;20.70;99.90;;;;;;5084950;28;20035;-69
2023/07/15 04:16:54;;;;;;;6.50;2.58;;;20.70;99.90;;;;;;5083935;28;20012;-69
2023/07/15 04:19:20;;;;;;;5.93;2.72;;;20.60;99.90;;;;;;5080330;28;20027;-69
2023/07/15 04:21:46;;;;;;;6.28;2.83;;;20.60;99.90;;;;;;5081764;28;20039;-69
2023/07/15 04:24:11;;;;;;;6.63;2.70;;;20.60;99.90;;;;;;5081873;28;20019;-69
2023/07/15 04:26:37;;;;;;;5.32;2.60;;;20.60;99.90;;;;;;5082228;28;20040;-69
2023/07/15 04:29:03;;;;;;;6.95;2.90;;;20.60;99.90;;;;;;5087943;28;20494;-69
2023/07/15 04:31:29;;;;;;;3.05;2.40;;;20.60;99.90;;;;;;5077048;28;20024;-69
2023/07/15 04:33:55;;;;;;;7.80;2.60;;;20.60;99.90;;;;;;5081029;28;20023;-69
2023/07/15 04:36:22;;;;;;;3.20;2.70;;;20.60;99.90;;;;;;5084911;28;20632;-69
2023/07/15 04:38:47;;;;;;;6.93;2.70;;;20.60;99.90;;;;;;5078362;28;20024;-69
2023/07/15 04:41:13;;;;;;;5.88;2.53;;;20.60;99.90;;;;;;5088835;28;20016;-69
2023/07/15 04:43:39;;;;;;;5.20;2.28;;;20.60;99.90;;;;;;5082880;28;20020;-69
2023/07/15 04:46:06;;;;;;;5.75;2.78;;;20.60;99.90;;;;;;5081355;28;20392;-69
2023/07/15 04:48:32;;;;;;;8.85;2.58;;;20.60;99.90;;;;;;5083880;28;20035;-69
2023/07/15 04:50:58;;;;;;;4.82;2.53;;;20.60;99.90;;;;;;5079373;28;20017;-69
2023/07/15 04:53:23;;;;;;;8.82;2.67;;;20.60;99.90;;;;;;5085305;28;20086;-69
2023/07/15 04:55:49;;;;;;;5.47;2.45;;;20.60;99.90;;;;;;5082159;28;20028;-70
2023/07/15 04:58:17;;;;;;;4.30;2.90;;;20.60;99.90;;;;;;5083760;28;20039;-69
2023/07/15 05:00:44;;;;;;;4.32;2.85;;;20.60;99.90;;;;;;5089218;28;20028;-69
2023/07/15 05:03:10;;;;;;;6.78;2.97;;;20.60;99.90;;;;;;5082593;28;20552;-69
2023/07/15 05:05:35;;;;;;;7.55;2.47;;;20.60;99.90;;;;;;5082657;28;20111;-69
2023/07/15 05:08:15;;;;;;;4.68;3.10;;;20.60;99.90;;;;;;5083044;28;20021;-69
2023/07/15 05:10:42;;;;;;;4.47;2.53;;;20.60;99.90;;;;;;5086228;28;20078;-69
2023/07/15 05:13:08;;;;;;;9.77;2.75;;;20.70;99.90;;;;;;5077893;28;20074;-69
2023/07/15 05:15:36;;;;;;;10.15;2.63;;;20.70;99.90;;;;;;5080361;28;20124;-69
2023/07/15 05:18:01;;;;;;;6.57;2.53;;;20.70;99.90;;;;;;5083277;28;20016;-69
2023/07/15 05:20:28;;;;;;;13.30;3.35;;;20.70;99.90;;;;;;5078583;28;20028;-70
2023/07/15 05:22:54;;;;;;;4.97;2.90;;;20.70;99.90;;;;;;5080826;28;20107;-69
2023/07/15 05:25:20;;;;;;;4.38;2.78;;;20.70;99.90;;;;;;5082458;28;20464;-70
2023/07/15 05:27:46;;;;;;;4.18;2.97;;;20.70;99.90;;;;;;5084837;28;20024;-69
2023/07/15 05:30:12;;;;;;;8.25;2.60;;;20.80;99.90;;;;;;5082677;28;20024;-70
2023/07/15 05:32:38;;;;;;;5.65;2.88;;;20.80;99.90;;;;;;5080792;28;20469;-69
2023/07/15 05:35:04;;;;;;;9.75;3.05;;;20.70;99.90;;;;;;5080587;28;20032;-69
2023/07/15 05:37:30;;;;;;;7.88;2.80;;;20.80;99.90;;;;;;5083951;28;20021;-70
2023/07/15 05:39:55;;;;;;;4.05;2.55;;;20.70;99.90;;;;;;5083428;28;20028;-69
2023/07/15 05:42:21;;;;;;;6.80;3.50;;;20.80;99.90;;;;;;5079055;28;20048;-72
2023/07/15 05:44:47;;;;;;;8.32;2.60;;;20.70;99.90;;;;;;5084515;28;20089;-69
2023/07/15 05:47:13;;;;;;;3.50;2.60;;;20.60;99.90;;;;;;5079701;28;20107;-69
2023/07/15 05:49:38;;;;;;;5.95;2.85;;;20.70;99.90;;;;;;5076352;28;20029;-70
2023/07/15 05:52:04;;;;;;;9.43;2.85;;;20.70;99.90;;;;;;5086088;28;20494;-69
2023/07/15 05:54:30;;;;;;;8.43;2.70;;;20.80;99.90;;;;;;5082077;28;20032;-69
2023/07/15 05:56:55;;;;;;;6.63;2.80;;;20.70;99.90;;;;;;5079095;28;20116;-70
2023/07/15 05:59:22;;;;;;;4.07;2.35;;;20.70;99.90;;;;;;5087434;28;20036;-69
2023/07/15 06:01:48;;;;;;;4.00;2.05;;;20.80;99.90;;;;;;5087838;28;20019;-69
2023/07/15 06:04:14;;;;;;;3.97;2.35;;;20.80;99.90;;;;;;5079504;28;20025;-69
2023/07/15 06:06:39;;;;;;;6.13;2.70;;;20.90;99.90;;;;;;5080821;28;20093;-69
2023/07/15 06:09:05;;;;;;;6.15;2.22;;;21.00;99.90;;;;;;5081906;28;20443;-69
2023/07/15 06:11:31;;;;;;;6.05;2.30;;;21.00;99.90;;;;;;5075405;28;20508;-69
2023/07/15 06:14:00;;;;;;;5.68;2.38;;;21.10;99.90;;;;;;5080639;28;20032;-69
2023/07/15 06:16:26;;;;;;;2.75;2.13;;;21.20;99.90;;;;;;5078617;28;20021;-69
2023/07/15 06:18:52;;;;;;;4.30;2.03;;;21.30;99.90;;;;;;5089784;28;20357;-69
2023/07/15 06:21:18;;;;;;;8.73;2.17;;;21.50;99.90;;;;;;5078790;28;20028;-70
2023/07/15 06:23:43;;;;;;;6.47;2.20;;;21.70;99.90;;;;;;5080740;28;20024;-69
2023/07/15 06:26:09;;;;;;;7.90;2.13;;;21.80;99.90;;;;;;5075700;28;20500;-69
2023/07/15 06:28:35;;;;;;;7.07;2.00;;;21.80;99.90;;;;;;5080287;28;20040;-69
2023/07/15 06:31:06;;;;;;;8.25;2.17;;;21.90;99.90;;;;;;5085480;28;20035;-70
2023/07/15 06:33:33;;;;;;;2.92;1.90;;;21.90;99.90;;;;;;5080235;28;20020;-69
2023/07/15 06:35:59;;;;;;;6.95;2.30;;;22.00;99.90;;;;;;5076444;28;20020;-69
2023/07/15 06:38:27;;;;;;;4.07;2.08;;;22.10;99.90;;;;;;5075831;28;20892;-69
2023/07/15 06:40:54;;;;;;;4.25;2.00;;;22.20;99.90;;;;;;5077442;28;20393;-69
2023/07/15 06:43:19;;;;;;;3.03;1.83;;;22.30;99.90;;;;;;5078959;28;21644;-69
2023/07/15 06:45:45;;;;;;;2.33;1.60;;;22.40;99.90;;;;;;5085537;28;20055;-69
2023/07/15 06:48:11;;;;;;;6.53;1.90;;;22.50;99.90;;;;;;5084317;28;20427;-69
2023/07/15 06:50:37;;;;;;;3.85;1.58;;;22.60;99.90;;;;;;5077949;28;20036;-69
2023/07/15 06:53:03;;;;;;;3.88;1.67;;;22.70;99.90;;;;;;5078669;28;20494;-69
2023/07/15 06:55:29;;;;;;;2.85;1.60;;;22.90;99.90;;;;;;5085693;28;20063;-69
2023/07/15 06:57:54;;;;;;;4.18;1.42;;;23.00;99.90;;;;;;5081613;28;20069;-69
2023/07/15 07:00:22;;;;;;;6.03;2.30;;;23.20;99.90;;;;;;5074322;28;20064;-69
2023/07/15 07:02:48;;;;;;;3.58;1.30;;;23.20;99.90;;;;;;5081511;28;20012;-69
2023/07/15 07:05:15;;;;;;;4.25;1.40;;;23.30;99.90;;;;;;5080306;28;20380;-69
2023/07/15 07:07:41;;;;;;;2.95;2.03;;;23.40;99.90;;;;;;5083918;28;20020;-69
2023/07/15 07:10:08;;;;;;;8.23;2.00;;;23.50;99.90;;;;;;5083795;28;20067;-68
2023/07/15 07:12:33;;;;;;;5.43;2.17;;;23.70;99.90;;;;;;5081532;28;20099;-69
2023/07/15 07:14:59;;;;;;;4.32;1.73;;;23.80;99.90;;;;;;5086400;28;20103;-69
2023/07/15 07:17:25;;;;;;;6.38;2.08;;;24.00;99.90;;;;;;5083308;28;20064;-69
2023/07/15 07:19:50;;;;;;;5.68;2.13;;;23.90;99.90;;;;;;5084714;28;20017;-69
2023/07/15 07:22:16;;;;;;;7.47;2.00;;;23.90;99.90;;;;;;5087868;28;20028;-69
2023/07/15 07:24:41;;;;;;;2.15;1.50;;;24.00;99.90;;;;;;5082070;28;20353;-69
2023/07/15 07:27:07;;;;;;;4.50;1.98;;;23.90;99.90;;;;;;5079678;28;20024;-69
2023/07/15 07:29:34;;;;;;;8.32;1.77;;;24.00;99.90;;;;;;5083201;28;20071;-69
2023/07/15 07:32:00;;;;;;;2.95;1.90;;;24.00;99.90;;;;;;5082451;28;20048;-69
2023/07/15 07:34:25;;;;;;;7.72;2.00;;;24.00;99.90;;;;;;5084338;28;20067;-69
2023/07/15 07:36:51;;;;;;;3.45;1.77;;;23.90;99.90;;;;;;5081671;28;20032;-69
2023/07/15 07:39:17;;;;;;;6.28;1.77;;;24.00;99.90;;;;;;5089488;28;20488;-68
2023/07/15 07:41:42;;;;;;;6.22;1.70;;;24.00;99.90;;;;;;5080695;28;20024;-69
2023/07/15 07:44:11;;;;;;;8.02;1.80;;;24.00;99.90;;;;;;5081129;28;20358;-70
2023/07/15 07:46:37;;;;;;;6.25;1.98;;;24.10;99.90;;;;;;5079908;28;20373;-69
2023/07/15 07:49:02;;;;;;;4.20;1.70;;;24.30;99.90;;;;;;5084161;28;20025;-71
2023/07/15 07:51:28;;;;;;;3.13;1.67;;;24.40;99.90;;;;;;5083354;28;20031;-71
2023/07/15 07:53:54;;;;;;;2.78;1.50;;;24.40;99.90;;;;;;5082381;28;20473;-70
2023/07/15 07:56:19;;;;;;;3.17;1.67;;;24.40;99.90;;;;;;5082607;28;20039;-71
2023/07/15 07:58:45;;;;;;;4.22;1.70;;;24.40;99.90;;;;;;5085131;28;20036;-70
2023/07/15 08:01:11;;;;;;;3.90;1.92;;;24.40;99.90;;;;;;5081463;28;20086;-70
2023/07/15 08:03:46;;;;;;;3.65;1.98;;;24.40;99.90;;;;;;5085594;28;20036;-71
2023/07/15 08:06:17;;;;;;;3.00;1.77;;;24.50;99.90;;;;;;5084009;28;20106;-71
2023/07/15 08:08:42;;;;;;;3.38;1.63;;;24.50;99.90;;;;;;5082281;28;20029;-71
2023/07/15 08:11:08;;;;;;;2.25;1.70;;;24.50;99.90;;;;;;5081545;28;20038;-71
2023/07/15 08:13:34;;;;;;;5.07;1.90;;;24.60;99.90;;;;;;5081400;28;20134;-71
2023/07/15 08:16:00;;;;;;;2.72;2.10;;;24.70;99.90;;;;;;5083385;28;20489;-71
2023/07/15 08:18:25;;;;;;;3.92;2.20;;;24.80;99.90;;;;;;5079769;28;20036;-71
2023/07/15 08:20:51;;;;;;;5.00;1.85;;;24.70;99.90;;;;;;5082998;28;20016;-72
2023/07/15 08:23:17;;;;;;;5.82;1.83;;;24.60;99.90;;;;;;5079242;28;20027;-70
2023/07/15 08:25:43;;;;;;;4.40;1.90;;;24.60;99.90;;;;;;5083067;28;20377;-71
2023/07/15 08:28:09;;;;;;;4.63;2.10;;;24.50;99.90;;;;;;5080101;28;20327;-71
2023/07/15 08:30:36;;;;;;;9.98;1.65;;;24.40;99.90;;;;;;5086093;28;20117;-70
2023/07/15 08:33:05;;;;;;;9.05;1.75;;;24.40;99.90;;;;;;5080485;28;20035;-71
2023/07/15 08:35:32;;;;;;;8.55;2.10;;;24.40;99.90;;;;;;5079130;28;20029;-71
2023/07/15 08:37:58;;;;;;;4.63;1.70;;;24.50;99.90;;;;;;5082000;28;20016;-70
2023/07/15 08:40:25;;;;;;;6.05;2.20;;;24.50;99.90;;;;;;5079694;28;20032;-70
2023/07/15 08:42:51;;;;;;;5.65;2.20;;;24.50;99.90;;;;;;5082360;28;20524;-71
2023/07/15 08:45:21;;;;;;;5.25;2.58;;;24.60;99.90;;;;;;5082096;28;20028;-71
2023/07/15 08:47:47;;;;;;;1.80;1.63;;;24.70;99.90;;;;;;5080322;28;20403;-70
2023/07/15 08:50:18;;;;;;;1.75;1.60;;;24.60;99.90;;;;;;5085650;28;20024;-70
2023/07/15 08:52:45;;;;;;;3.67;1.60;;;24.60;99.90;;;;;;5083433;28;20038;-70
2023/07/15 08:55:11;;;;;;;4.78;1.92;;;24.70;99.90;;;;;;5079915;28;20016;-70
2023/07/15 08:57:37;;;;;;;3.95;2.08;;;24.50;99.90;;;;;;5083769;28;20039;-70
2023/07/15 09:00:08;;;;;;;3.20;1.60;;;24.50;99.90;;;;;;5077405;28;20012;-70
2023/07/15 09:02:37;;;;;;;2.92;1.90;;;24.40;99.90;;;;;;5082387;28;20024;-71
2023/07/15 09:05:09;;;;;;;5.32;2.13;;;24.40;99.90;;;;;;5085106;28;20361;-71
2023/07/15 09:07:56;;;;;;;4.47;1.73;;;24.40;99.90;;;;;;5087615;28;20468;-69
2023/07/15 09:10:22;;;;;;;5.07;1.73;;;24.30;99.90;;;;;;5080496;28;20039;-71
2023/07/15 09:12:52;;;;;;;2.35;1.90;;;24.20;99.90;;;;;;5084433;28;20028;-72
2023/07/15 09:15:18;;;;;;;5.10;2.17;;;24.20;99.90;;;;;;5083599;28;20020;-71
2023/07/15 09:17:57;;;;;;;4.38;1.83;;;24.10;99.90;;;;;;5088887;28;20019;-70
2023/07/15 09:20:25;;;;;;;6.82;2.13;;;24.10;99.90;;;;;;5079774;28;20077;-70
2023/07/15 09:22:58;;;;;;;3.53;1.98;;;24.20;99.90;;;;;;5082289;28;20023;-71
2023/07/15 09:25:25;;;;;;;4.93;1.83;;;24.30;99.90;;;;;;5080200;28;20035;-71
2023/07/15 09:27:52;;;;;;;4.38;1.70;;;24.40;99.90;;;;;;5082459;28;20020;-70
2023/07/15 09:30:18;;;;;;;5.10;2.20;;;24.50;99.90;;;;;;5079609;28;20413;-72
2023/07/15 09:32:44;;;;;;;7.15;2.22;;;24.40;99.90;;;;;;5078443;28;20067;-71
2023/07/15 09:35:10;;;;;;;5.60;1.83;;;24.40;99.90;;;;;;5079902;28;20569;-71
2023/07/15 09:37:35;;;;;;;4.22;2.22;;;24.50;99.90;;;;;;5076290;28;20428;-71
2023/07/15 09:40:09;;;;;;;3.75;1.80;;;24.50;99.90;;;;;;5080200;28;20008;-72
2023/07/15 09:42:51;;;;;;;6.72;1.85;;;24.70;99.90;;;;;;5084036;28;20504;-72
2023/07/15 09:45:35;;;;;;;3.80;1.90;;;25.00;99.90;;;;;;5074230;28;20554;-72
2023/07/15 09:48:04;;;;;;;6.32;1.70;;;25.20;99.90;;;;;;5080868;28;20080;-70
2023/07/15 09:50:35;;;;;;;2.90;1.88;;;25.40;99.90;;;;;;5072967;28;20591;-72
2023/07/15 09:53:01;;;;;;;2.80;1.67;;;25.70;99.90;;;;;;5081850;28;20054;-73
2023/07/15 09:55:29;;;;;;;4.25;1.60;;;25.80;99.90;;;;;;5079211;28;20062;-72
2023/07/15 09:58:21;;;;;;;3.72;1.60;;;25.80;99.90;;;;;;5081693;28;20032;-72
2023/07/15 10:00:50;;;;;;;4.00;1.70;;;25.70;99.90;;;;;;5073555;28;20138;-71
2023/07/15 10:03:40;;;;;;;3.17;1.45;;;25.90;99.90;;;;;;5080746;28;20660;-72
2023/07/15 10:06:05;;;;;;;1.80;1.60;;;26.30;99.90;;;;;;5083912;28;20028;-71
2023/07/15 10:08:32;;;;;;;3.25;1.40;;;26.40;99.90;;;;;;5076416;28;20129;-72
2023/07/15 10:10:58;;;;;;;2.85;1.65;;;26.40;99.90;;;;;;5079322;28;20081;-70
2023/07/15 10:13:24;;;;;;;3.65;1.67;;;26.50;99.90;;;;;;5081735;28;20036;-70
2023/07/15 10:15:50;;;;;;;3.75;1.55;;;26.50;99.90;;;;;;5083681;28;20028;-72
2023/07/15 10:18:19;;;;;;;6.07;1.20;;;26.50;99.90;;;;;;5082922;28;20016;-71
2023/07/15 10:21:02;;;;;;;3.13;1.30;;;26.30;99.90;;;;;;5081464;28;20024;-71
2023/07/15 10:23:31;;;;;;;4.78;1.67;;;26.40;99.90;;;;;;5078682;28;20016;-71
2023/07/15 10:26:00;;;;;;;4.00;1.73;;;26.30;99.90;;;;;;5077453;28;20048;-72
2023/07/15 10:28:30;;;;;;;4.18;1.50;;;26.20;99.90;;;;;;5081638;28;20578;-73
2023/07/15 10:31:25;;;;;;;3.33;1.40;;;26.20;99.90;;;;;;5081369;28;20052;-72
2023/07/15 10:33:54;;;;;;;2.72;1.58;;;26.10;99.90;;;;;;5076576;28;20045;-73
2023/07/15 10:36:40;;;;;;;5.05;1.52;;;26.00;99.90;;;;;;5083118;28;20024;-72
2023/07/15 10:39:31;;;;;;;3.75;1.35;;;25.90;99.90;;;;;;5083980;28;20031;-74
2023/07/15 10:42:10;;;;;;;3.85;1.77;;;25.90;99.90;;;;;;5079979;28;20032;-73
2023/07/15 10:44:51;;;;;;;4.13;1.58;;;25.90;99.90;;;;;;5078756;28;20589;-74
2023/07/15 10:47:16;;;;;;;5.50;1.83;;;25.80;99.90;;;;;;5077162;28;20535;-71
2023/07/15 10:49:45;;;;;;;4.82;1.88;;;25.80;99.90;;;;;;5075919;28;20036;-73
2023/07/15 10:52:18;;;;;;;3.50;1.65;;;25.70;99.90;;;;;;5079954;28;20024;-73
2023/07/15 10:54:44;;;;;;;3.92;1.90;;;25.70;99.90;;;;;;5080117;28;20121;-71
2023/07/15 10:57:12;;;;;;;2.88;1.90;;;25.60;99.90;;;;;;5078341;28;20099;-73
2023/07/15 10:59:44;;;;;;;2.53;1.60;;;25.50;99.90;;;;;;5073537;28;20058;-73
2023/07/15 11:02:11;;;;;;;3.67;1.92;;;25.60;99.90;;;;;;5070306;28;20029;-71
2023/07/15 11:04:39;;;;;;;4.47;1.85;;;25.50;99.90;;;;;;5081547;28;20020;-73
2023/07/15 11:07:11;;;;;;;2.45;1.70;;;25.60;99.90;;;;;;5077970;28;20028;-73
2023/07/15 11:09:40;;;;;;;3.40;2.05;;;25.60;99.90;;;;;;5079004;28;20496;-72
2023/07/15 11:12:08;;;;;;;2.97;2.10;;;25.50;99.90;;;;;;5070919;28;20032;-72
2023/07/15 11:14:33;;;;;;;3.13;2.10;;;25.50;99.90;;;;;;5080180;28;20077;-72
2023/07/15 11:17:01;;;;;;;4.78;2.42;;;25.40;99.90;;;;;;5078975;28;20021;-73
2023/07/15 11:19:28;;;;;;;4.07;2.58;;;25.30;99.90;;;;;;5080008;28;20035;-72
2023/07/15 11:21:56;;;;;;;3.08;2.28;;;25.30;99.90;;;;;;5080576;28;20017;-73
2023/07/15 11:24:23;;;;;;;2.60;1.90;;;25.20;99.90;;;;;;5079024;28;20028;-73
2023/07/15 11:26:50;;;;;;;4.10;2.15;;;25.10;99.90;;;;;;5076186;28;20405;-73
2023/07/15 11:29:25;;;;;;;7.57;2.38;;;25.20;99.90;;;;;;5076323;28;20037;-73
2023/07/15 11:31:51;;;;;;;3.65;2.10;;;25.10;99.90;;;;;;5079470;28;20138;-73
2023/07/15 11:34:22;;;;;;;2.55;2.00;;;25.10;99.90;;;;;;5079969;28;20123;-73
2023/07/15 11:36:53;;;;;;;5.22;2.38;;;25.20;99.90;;;;;;5074540;28;20052;-74
2023/07/15 11:39:19;;;;;;;3.58;2.15;;;25.20;99.90;;;;;;5078289;28;20033;-74
2023/07/15 11:41:45;;;;;;;4.25;2.33;;;25.30;99.90;;;;;;5080456;28;20027;-74
2023/07/15 11:44:13;;;;;;;4.00;2.28;;;25.40;99.90;;;;;;5080210;28;20086;-73
2023/07/15 11:46:40;;;;;;;5.47;2.30;;;25.40;99.90;;;;;;5081911;28;20533;-73
2023/07/15 11:49:06;;;;;;;6.10;2.30;;;25.50;99.90;;;;;;5081487;28;20067;-73
2023/07/15 11:51:34;;;;;;;3.83;2.47;;;25.60;99.90;;;;;;5073058;28;20055;-73
2023/07/15 11:54:01;;;;;;;3.67;2.35;;;25.60;99.90;;;;;;5078429;28;20066;-74
2023/07/15 11:56:38;;;;;;;7.00;2.17;;;25.60;99.90;;;;;;5089595;28;20132;-73
2023/07/15 11:59:09;;;;;;;4.45;2.75;;;25.60;99.90;;;;;;5084622;28;20089;-73
2023/07/15 12:01:40;;;;;;;3.03;2.35;;;25.50;99.90;;;;;;5084334;28;20028;-73
2023/07/15 12:04:13;;;;;;;5.85;2.40;;;25.50;99.90;;;;;;5083450;28;20102;-73
2023/07/15 12:06:52;;;;;;;5.30;2.60;;;25.50;99.90;;;;;;5085310;28;20512;-73
2023/07/15 12:09:18;;;;;;;3.50;2.35;;;25.70;99.90;;;;;;5080886;28;20033;-73
2023/07/15 12:11:45;;;;;;;4.38;2.78;;;25.90;99.90;;;;;;5083381;28;20476;-73
2023/07/15 12:14:12;;;;;;;4.68;2.83;;;26.10;99.90;;;;;;5078310;28;20038;-72
2023/07/15 12:16:39;;;;;;;3.50;2.40;;;25.90;99.90;;;;;;5077047;28;20094;-72
2023/07/15 12:19:07;;;;;;;4.68;2.40;;;26.00;99.90;;;;;;5080541;28;20422;-72
2023/07/15 12:21:33;;;;;;;2.95;2.30;;;26.00;99.90;;;;;;5087663;28;20024;-73
2023/07/15 12:23:59;;;;;;;3.67;3.15;;;26.10;99.90;;;;;;5077430;28;20516;-73
2023/07/15 12:26:25;;;;;;;3.63;2.63;;;26.10;99.90;;;;;;5083691;28;20055;-73
2023/07/15 12:28:51;;;;;;;2.67;2.38;;;26.20;99.90;;;;;;5079522;28;20101;-72
2023/07/15 12:31:17;;;;;;;4.47;2.30;;;26.20;99.90;;;;;;5077809;28;20377;-72
2023/07/15 12:33:44;;;;;;;3.65;2.40;;;26.20;99.90;;;;;;5081021;28;20048;-72
2023/07/15 12:36:11;;;;;;;6.03;2.92;;;26.30;99.90;;;;;;5086549;28;20747;-72
2023/07/15 12:38:38;;;;;;;6.05;2.60;;;26.30;99.90;;;;;;5085447;28;20073;-72
2023/07/15 12:41:04;;;;;;;3.67;2.35;;;26.40;99.90;;;;;;5084884;28;20043;-73
2023/07/15 12:43:31;;;;;;;5.65;2.60;;;26.50;99.90;;;;;;5080866;28;20030;-72
2023/07/15 12:45:57;;;;;;;2.78;2.50;;;26.90;99.90;;;;;;5083664;28;20060;-72
2023/07/15 12:48:23;;;;;;;7.45;2.78;;;27.20;99.90;;;;;;5082013;28;20059;-72